Terminal Aerodrome Forecast
Issued by NWS

Home | Current Version | Previous Version | Text Only | Print | Product List | Glossary On
Versions: 1 2 3 4 5 6 7 8 9 10 11 12 13 14 15 16 17 18 19 20 21 22 23 24 25 26 27
750
FTUS41 KBTV 250209 AAA
TAFSLK
TAF AMD
KSLK 250209Z 2502/2524 VRB03KT 6SM BR BKN150 BKN200
      TEMPO 2502/2506 3SM BR
     FM251400 19012G20KT P6SM OVC025
     FM251600 19017G25KT P6SM VCSH BKN025
     FM252000 22016G25KT 3SM +RA BR OVC015=

USA.gov is the U.S. government's official web portal to all federal, state and local government web resources and services.